createdAt,value
2019-01-20T00:02:09.158Z,14.80
2019-01-20T00:04:36.947Z,16.50
2019-01-20T00:07:04.833Z,15.57
2019-01-20T00:09:32.612Z,14.33
2019-01-20T00:12:00.324Z,14.40
2019-01-20T00:14:28.106Z,16.60
2019-01-20T00:16:55.854Z,20.57
2019-01-20T00:19:23.657Z,17.43
2019-01-20T00:21:51.515Z,17.43
2019-01-20T00:24:19.346Z,17.47
2019-01-20T00:26:47.104Z,17.77
2019-01-20T00:29:14.891Z,21.67
2019-01-20T00:31:42.643Z,19.20
2019-01-20T00:34:18.089Z,20.67
2019-01-20T00:36:52.721Z,16.50
2019-01-20T00:39:20.475Z,17.67
2019-01-20T00:41:53.449Z,18.57
2019-01-20T00:44:26.080Z,17.27
2019-01-20T00:46:53.815Z,22.50
2019-01-20T00:49:21.623Z,19.80
2019-01-20T00:51:49.385Z,18.10
2019-01-20T00:54:17.270Z,18.47
2019-01-20T00:56:45.009Z,18.23
2019-01-20T00:59:12.801Z,16.07
2019-01-20T01:01:40.573Z,18.43
2019-01-20T01:04:08.363Z,21.10
2019-01-20T01:06:36.140Z,18.70
2019-01-20T01:09:07.416Z,22.60
2019-01-20T01:11:35.243Z,21.80
2019-01-20T01:14:03.597Z,23.13
2019-01-20T01:16:47.087Z,25.17
2019-01-20T01:19:14.978Z,21.57
2019-01-20T01:21:50.089Z,17.93
2019-01-20T01:24:25.413Z,20.90
2019-01-20T01:27:02.700Z,18.70
2019-01-20T01:29:43.688Z,17.30
2019-01-20T01:32:11.551Z,18.47
2019-01-20T01:34:39.298Z,19.90
2019-01-20T01:37:07.148Z,25.67
2019-01-20T01:39:34.864Z,18.30
2019-01-20T01:42:03.135Z,19.23
2019-01-20T01:44:30.896Z,23.50
2019-01-20T01:46:58.652Z,23.77
2019-01-20T01:49:26.399Z,23.87
2019-01-20T01:51:54.152Z,22.83
2019-01-20T01:54:21.912Z,22.93
2019-01-20T01:56:49.742Z,24.30
2019-01-20T01:59:17.453Z,22.27
2019-01-20T02:01:46.514Z,19.53
2019-01-20T02:04:14.233Z,20.70
2019-01-20T02:06:41.994Z,21.40
2019-01-20T02:09:09.736Z,25.40
2019-01-20T02:11:37.528Z,23.17
2019-01-20T02:14:05.386Z,25.67
2019-01-20T02:16:33.138Z,22.47
2019-01-20T02:19:00.904Z,24.73
2019-01-20T02:21:28.662Z,18.40
2019-01-20T02:23:56.440Z,26.20
2019-01-20T02:26:24.219Z,25.43
2019-01-20T02:28:51.966Z,24.23
2019-01-20T02:31:19.726Z,26.20
2019-01-20T02:33:47.489Z,23.87
2019-01-20T02:36:15.274Z,21.60
2019-01-20T02:38:43.017Z,23.57
2019-01-20T02:41:10.814Z,26.03
2019-01-20T02:43:38.540Z,30.13
2019-01-20T02:46:06.318Z,22.70
2019-01-20T02:48:34.102Z,24.10
2019-01-20T02:51:01.842Z,26.60
2019-01-20T02:53:29.689Z,23.97
2019-01-20T02:55:57.446Z,24.53
2019-01-20T02:58:25.243Z,28.80
2019-01-20T03:00:53.031Z,28.13
2019-01-20T03:03:20.790Z,22.73
2019-01-20T03:05:48.542Z,21.20
2019-01-20T03:08:16.303Z,22.47
2019-01-20T03:10:44.063Z,19.73
2019-01-20T03:13:11.820Z,24.10
2019-01-20T03:15:39.926Z,19.33
2019-01-20T03:18:07.685Z,21.30
2019-01-20T03:20:35.455Z,19.37
2019-01-20T03:23:03.221Z,25.80
2019-01-20T03:25:30.949Z,21.77
2019-01-20T03:27:58.731Z,20.67
2019-01-20T03:30:26.489Z,22.17
2019-01-20T03:32:54.273Z,23.10
2019-01-20T03:35:25.744Z,24.93
2019-01-20T03:37:53.615Z,25.17
2019-01-20T03:40:21.701Z,25.70
2019-01-20T03:42:49.758Z,21.00
2019-01-20T03:45:18.371Z,24.60
2019-01-20T03:47:46.121Z,23.37
2019-01-20T03:50:15.098Z,22.63
2019-01-20T03:52:42.940Z,23.37
2019-01-20T03:55:12.852Z,22.43
2019-01-20T03:57:40.610Z,21.17
2019-01-20T04:00:15.850Z,20.93
2019-01-20T04:02:44.485Z,19.73
2019-01-20T04:05:12.409Z,23.10
2019-01-20T04:07:40.223Z,19.40
2019-01-20T04:10:11.609Z,20.10
2019-01-20T04:12:39.406Z,19.70
2019-01-20T04:15:07.662Z,20.23
2019-01-20T04:17:35.375Z,21.83
2019-01-20T04:20:04.036Z,23.77
2019-01-20T04:22:31.764Z,22.27
2019-01-20T04:24:59.546Z,21.53
2019-01-20T04:27:27.302Z,21.77
2019-01-20T04:29:55.058Z,19.87
2019-01-20T04:32:22.830Z,20.40
2019-01-20T04:34:50.631Z,24.53
2019-01-20T04:37:18.375Z,22.00
2019-01-20T04:39:46.128Z,22.37
2019-01-20T04:42:13.881Z,27.27
2019-01-20T04:44:41.812Z,21.30
2019-01-20T04:47:09.570Z,25.67
2019-01-20T04:49:37.794Z,22.47
2019-01-20T04:52:05.532Z,23.07
2019-01-20T04:54:33.276Z,20.27
2019-01-20T04:57:01.003Z,20.40
2019-01-20T04:59:28.927Z,20.13
2019-01-20T05:01:56.829Z,23.53
2019-01-20T05:04:24.604Z,23.37
2019-01-20T05:06:52.501Z,23.80
2019-01-20T05:09:20.269Z,21.07
2019-01-20T05:11:48.051Z,22.27
2019-01-20T05:14:15.853Z,23.30
2019-01-20T05:16:43.781Z,23.30
2019-01-20T05:19:11.551Z,20.13
2019-01-20T05:21:39.277Z,23.63
2019-01-20T05:24:07.059Z,23.00
2019-01-20T05:26:34.801Z,26.43
2019-01-20T05:29:02.539Z,26.10
2019-01-20T05:31:30.285Z,30.73
2019-01-20T05:33:58.013Z,28.53
2019-01-20T05:36:25.953Z,27.03
2019-01-20T05:38:53.703Z,23.13
2019-01-20T05:41:21.432Z,26.17
2019-01-20T05:43:49.174Z,26.03
2019-01-20T05:46:16.905Z,25.37
2019-01-20T05:48:44.642Z,24.70
2019-01-20T05:51:12.396Z,23.87
2019-01-20T05:53:40.138Z,21.33
2019-01-20T05:56:07.902Z,26.40
2019-01-20T05:58:36.097Z,24.37
2019-01-20T06:01:03.869Z,25.97
2019-01-20T06:03:31.906Z,23.73
2019-01-20T06:05:59.692Z,23.87
2019-01-20T06:08:27.454Z,26.00
2019-01-20T06:10:55.194Z,23.33
2019-01-20T06:13:22.962Z,23.07
2019-01-20T06:15:50.707Z,22.97
2019-01-20T06:18:18.482Z,23.23
2019-01-20T06:20:46.231Z,23.53
2019-01-20T06:23:14.009Z,22.80
2019-01-20T06:25:41.744Z,21.27
2019-01-20T06:28:09.492Z,22.07
2019-01-20T06:30:37.228Z,23.23
2019-01-20T06:33:04.976Z,23.07
2019-01-20T06:35:32.740Z,22.90
2019-01-20T06:38:00.492Z,25.23
2019-01-20T06:40:28.425Z,26.17
2019-01-20T06:43:01.864Z,26.97
2019-01-20T06:45:25.866Z,24.67
2019-01-20T06:47:53.631Z,22.50
2019-01-20T06:50:21.840Z,26.93
2019-01-20T06:52:49.607Z,23.90
2019-01-20T06:55:17.366Z,22.63
2019-01-20T06:57:47.044Z,22.90
2019-01-20T07:00:24.496Z,22.97
2019-01-20T07:02:52.276Z,25.73
2019-01-20T07:05:20.207Z,25.97
2019-01-20T07:07:48.446Z,26.50
2019-01-20T07:10:16.542Z,25.97
2019-01-20T07:12:44.491Z,24.33
2019-01-20T07:15:15.685Z,26.53
2019-01-20T07:17:53.244Z,24.47
2019-01-20T07:20:21.323Z,26.47
2019-01-20T07:22:49.397Z,23.67
2019-01-20T07:25:21.050Z,24.43
2019-01-20T07:27:53.581Z,21.87
2019-01-20T07:30:24.459Z,23.23
2019-01-20T07:33:02.455Z,23.23
2019-01-20T07:35:30.689Z,23.53
2019-01-20T07:37:58.445Z,26.40
2019-01-20T07:40:32.314Z,29.83
2019-01-20T07:43:00.129Z,29.37
2019-01-20T07:45:27.859Z,25.43
2019-01-20T07:47:55.643Z,25.30
2019-01-20T07:50:26.654Z,25.00
2019-01-20T07:52:54.495Z,25.00
2019-01-20T07:55:22.363Z,36.63
2019-01-20T07:57:50.230Z,33.80
2019-01-20T08:00:20.498Z,33.47
2019-01-20T08:02:48.251Z,36.33
2019-01-20T08:05:16.810Z,33.93
2019-01-20T08:07:44.604Z,28.70
2019-01-20T08:10:16.531Z,27.87
2019-01-20T08:12:44.448Z,29.37
2019-01-20T08:15:12.473Z,27.13
2019-01-20T08:17:43.906Z,27.63
2019-01-20T08:20:43.242Z,27.47
2019-01-20T08:23:13.264Z,31.27
2019-01-20T08:26:20.124Z,29.40
2019-01-20T08:28:56.136Z,26.47
2019-01-20T08:31:42.040Z,25.23
2019-01-20T08:34:14.278Z,30.90
2019-01-20T08:36:48.371Z,25.50
2019-01-20T08:39:16.107Z,26.83
2019-01-20T08:41:59.938Z,27.33
2019-01-20T08:44:32.520Z,29.83
2019-01-20T08:47:35.110Z,26.83
2019-01-20T08:50:09.743Z,28.70
2019-01-20T08:52:37.545Z,26.13
2019-01-20T08:55:28.577Z,28.03
2019-01-20T08:57:56.322Z,24.97
2019-01-20T09:00:34.460Z,32.67
2019-01-20T09:03:29.354Z,28.70
2019-01-20T09:05:59.484Z,26.17
2019-01-20T09:08:27.434Z,29.30
2019-01-20T09:10:55.182Z,29.67
2019-01-20T09:13:23.177Z,26.37
2019-01-20T09:15:51.227Z,25.30
2019-01-20T09:18:18.980Z,27.83
2019-01-20T09:20:46.756Z,25.13
2019-01-20T09:23:14.570Z,27.67
2019-01-20T09:25:42.325Z,29.23
2019-01-20T09:28:10.073Z,28.20
2019-01-20T09:30:38.163Z,31.57
2019-01-20T09:33:06.087Z,25.70
2019-01-20T09:35:34.312Z,25.50
2019-01-20T09:38:10.882Z,27.87
2019-01-20T09:41:05.991Z,29.40
2019-01-20T09:43:46.829Z,24.50
2019-01-20T09:46:09.267Z,23.33
2019-01-20T09:48:48.468Z,23.27
2019-01-20T09:51:16.282Z,24.77
2019-01-20T09:53:49.678Z,21.27
2019-01-20T09:56:28.085Z,23.43
2019-01-20T09:59:00.180Z,25.57
2019-01-20T10:01:27.934Z,23.40
2019-01-20T10:03:59.109Z,23.27
2019-01-20T10:06:30.256Z,24.03
2019-01-20T10:09:06.557Z,23.90
2019-01-20T10:11:36.025Z,21.60
2019-01-20T10:14:07.087Z,20.57
2019-01-20T10:16:47.989Z,22.63
2019-01-20T10:19:16.350Z,20.73
2019-01-20T10:21:46.836Z,21.77
2019-01-20T10:24:20.783Z,20.80
2019-01-20T10:26:55.161Z,20.37
2019-01-20T10:29:23.217Z,21.73
2019-01-20T10:31:51.316Z,21.97
2019-01-20T10:34:19.130Z,21.30
2019-01-20T10:36:49.763Z,20.03
2019-01-20T10:39:18.122Z,21.47
2019-01-20T10:44:38.492Z,20.67
2019-01-20T10:47:09.376Z,19.53
2019-01-20T10:49:41.690Z,21.57
2019-01-20T10:52:18.228Z,19.53
2019-01-20T10:54:55.921Z,18.27
2019-01-20T10:57:29.475Z,20.10
2019-01-20T11:00:07.636Z,18.37
2019-01-20T11:02:47.845Z,15.57
2019-01-20T11:05:30.710Z,16.70
2019-01-20T11:08:31.205Z,15.70
2019-01-20T11:11:26.448Z,17.50
2019-01-20T11:14:10.467Z,16.63
2019-01-20T11:16:31.685Z,16.10
2019-01-20T11:19:28.945Z,16.70
2019-01-20T11:22:22.073Z,15.67
2019-01-20T11:25:08.525Z,16.43
2019-01-20T11:28:08.361Z,14.53
2019-01-20T11:30:51.028Z,16.17
2019-01-20T11:34:25.759Z,15.03
2019-01-20T11:37:27.345Z,16.73
2019-01-20T11:40:20.463Z,14.33
2019-01-20T11:46:05.649Z,15.47
2019-01-20T11:49:34.800Z,13.80
2019-01-20T11:52:32.106Z,14.23
2019-01-20T11:55:36.812Z,15.77
2019-01-20T11:58:34.973Z,16.37
2019-01-20T12:01:02.800Z,17.13
2019-01-20T12:03:57.419Z,14.97
2019-01-20T12:06:30.461Z,15.97
2019-01-20T12:09:15.832Z,16.07
2019-01-20T12:11:43.819Z,16.10
2019-01-20T12:14:11.719Z,16.87
2019-01-20T12:16:40.649Z,16.13
2019-01-20T12:19:08.420Z,15.60
2019-01-20T12:21:36.311Z,18.37
2019-01-20T12:24:06.541Z,15.87
2019-01-20T12:26:34.427Z,18.63
2019-01-20T12:29:02.275Z,19.77
2019-01-20T12:31:30.166Z,18.37
2019-01-20T12:33:58.135Z,17.63
2019-01-20T12:36:26.103Z,18.20
2019-01-20T12:38:53.951Z,18.50
2019-01-20T12:41:21.930Z,18.17
2019-01-20T12:43:49.708Z,18.57
2019-01-20T12:46:20.496Z,19.07
2019-01-20T12:48:48.495Z,24.73
2019-01-20T12:51:16.363Z,17.97
2019-01-20T12:53:44.320Z,17.93
2019-01-20T12:56:12.217Z,19.60
2019-01-20T12:58:40.042Z,18.37
2019-01-20T13:01:07.929Z,18.20
2019-01-20T13:03:35.821Z,18.00
2019-01-20T13:06:03.860Z,17.60
2019-01-20T13:08:39.133Z,17.17
2019-01-20T13:11:06.900Z,17.17
2019-01-20T13:13:34.739Z,16.90
2019-01-20T13:16:04.109Z,18.13
2019-01-20T13:18:33.679Z,17.90
2019-01-20T13:21:01.613Z,19.60
2019-01-20T13:23:31.682Z,17.63
2019-01-20T13:26:01.372Z,22.50
2019-01-20T13:28:30.193Z,19.57
2019-01-20T13:30:57.900Z,17.73
2019-01-20T13:33:29.409Z,17.53
2019-01-20T13:35:57.249Z,16.70
2019-01-20T13:41:26.357Z,20.27
2019-01-20T13:43:55.727Z,19.97
2019-01-20T13:46:55.538Z,19.37
2019-01-20T13:49:23.293Z,19.47
2019-01-20T13:51:51.103Z,18.23
2019-01-20T13:54:18.887Z,20.53
2019-01-20T13:56:46.693Z,18.43
2019-01-20T13:59:14.489Z,17.87
2019-01-20T14:01:42.271Z,20.73
2019-01-20T14:04:10.099Z,21.23
2019-01-20T14:06:37.942Z,20.17
2019-01-20T14:09:07.470Z,22.70
2019-01-20T14:11:39.934Z,20.03
2019-01-20T14:14:07.714Z,21.03
2019-01-20T14:16:35.540Z,20.57
2019-01-20T14:19:05.152Z,20.93
2019-01-20T14:21:32.890Z,18.00
2019-01-20T14:24:00.765Z,19.33
2019-01-20T14:26:31.106Z,18.30
2019-01-20T14:28:58.907Z,18.80
2019-01-20T14:31:26.706Z,20.07
2019-01-20T14:33:54.505Z,20.40
2019-01-20T14:36:22.285Z,19.83
2019-01-20T14:38:50.134Z,19.70
2019-01-20T14:41:17.939Z,20.37
2019-01-20T14:44:03.674Z,22.90
2019-01-20T14:46:38.952Z,18.97
2019-01-20T14:49:06.776Z,21.93
2019-01-20T14:51:38.820Z,19.50
2019-01-20T14:54:06.700Z,20.47
2019-01-20T14:56:34.542Z,18.83
2019-01-20T14:59:03.481Z,18.00
2019-01-20T15:01:31.371Z,22.50
2019-01-20T15:04:00.080Z,23.00
2019-01-20T15:06:27.920Z,19.30
2019-01-20T15:08:55.775Z,21.30
2019-01-20T15:11:23.577Z,20.67
2019-01-20T15:14:22.546Z,20.47
2019-01-20T15:16:50.547Z,22.33
2019-01-20T15:19:21.946Z,22.10
2019-01-20T15:21:49.915Z,25.37
2019-01-20T15:24:17.685Z,23.93
2019-01-20T15:26:45.447Z,24.07
2019-01-20T15:29:13.204Z,24.03
2019-01-20T15:31:40.992Z,25.77
2019-01-20T15:34:08.814Z,22.90
2019-01-20T15:36:36.613Z,25.40
2019-01-20T15:39:07.283Z,22.30
2019-01-20T15:41:35.073Z,23.60
2019-01-20T15:44:03.072Z,25.53
2019-01-20T15:46:30.918Z,22.77
2019-01-20T15:48:58.735Z,26.57
2019-01-20T15:51:26.487Z,28.30
2019-01-20T15:53:54.285Z,23.37
2019-01-20T15:56:22.079Z,26.17
2019-01-20T15:58:49.841Z,28.23
2019-01-20T16:01:17.597Z,27.03
2019-01-20T16:04:10.555Z,35.13
2019-01-20T16:06:38.462Z,30.40
2019-01-20T16:09:08.494Z,28.73
2019-01-20T16:11:36.357Z,30.40
2019-01-20T16:14:04.255Z,25.53
2019-01-20T16:16:32.099Z,27.23
2019-01-20T16:18:59.995Z,24.53
2019-01-20T16:21:27.820Z,25.40
2019-01-20T16:23:55.801Z,25.93
2019-01-20T16:26:23.630Z,29.17
2019-01-20T16:28:51.404Z,28.83
2019-01-20T16:31:19.179Z,28.73
2019-01-20T16:33:49.852Z,27.50
2019-01-20T16:36:17.673Z,27.23
2019-01-20T16:38:45.520Z,27.20
2019-01-20T16:41:13.380Z,27.70
2019-01-20T16:43:41.176Z,31.60
2019-01-20T16:46:08.962Z,29.07
2019-01-20T16:48:38.602Z,26.73
2019-01-20T16:51:06.462Z,29.20
2019-01-20T16:53:34.254Z,30.13
2019-01-20T16:56:02.053Z,28.43
2019-01-20T16:58:29.886Z,33.03
2019-01-20T17:00:57.713Z,37.50
2019-01-20T17:03:27.774Z,34.37
2019-01-20T17:05:55.610Z,35.50
2019-01-20T17:08:23.409Z,33.43
2019-01-20T17:10:51.210Z,34.70
2019-01-20T17:13:18.956Z,42.57
2019-01-20T17:15:46.911Z,49.73
2019-01-20T17:18:15.543Z,49.90
2019-01-20T17:20:43.697Z,47.57
2019-01-20T17:23:11.568Z,44.30
2019-01-20T17:25:39.360Z,38.30
2019-01-20T17:28:07.101Z,41.20
2019-01-20T17:30:35.022Z,38.77
2019-01-20T17:33:03.401Z,43.20
2019-01-20T17:35:32.551Z,36.87
2019-01-20T17:38:00.320Z,40.40
2019-01-20T17:40:28.841Z,40.90
2019-01-20T17:42:57.217Z,37.90
2019-01-20T17:45:31.272Z,41.47
2019-01-20T17:48:00.225Z,38.33
2019-01-20T17:50:34.751Z,39.07
2019-01-20T17:53:44.458Z,40.43
2019-01-20T17:56:19.030Z,41.13
2019-01-20T17:59:11.169Z,39.20
2019-01-20T18:02:03.814Z,39.90
2019-01-20T18:04:31.814Z,40.13
2019-01-20T18:06:59.784Z,41.63
2019-01-20T18:10:04.080Z,41.43
2019-01-20T18:12:36.658Z,41.83
2019-01-20T18:15:09.236Z,39.13
2019-01-20T18:17:39.662Z,39.70
2019-01-20T18:20:17.552Z,38.83
2019-01-20T18:22:56.440Z,38.33
2019-01-20T18:25:31.570Z,39.33
2019-01-20T18:27:59.555Z,41.37
2019-01-20T18:30:27.957Z,42.90
2019-01-20T18:32:58.787Z,40.63
2019-01-20T18:35:26.842Z,41.30
2019-01-20T18:38:00.259Z,42.07
2019-01-20T18:40:34.130Z,45.13
2019-01-20T18:43:03.523Z,45.83
2019-01-20T18:45:32.192Z,50.80
2019-01-20T18:48:02.997Z,43.20
2019-01-20T18:50:36.402Z,49.70
2019-01-20T18:53:04.940Z,44.07
2019-01-20T18:55:33.966Z,42.77
2019-01-20T18:58:07.807Z,48.60
2019-01-20T19:00:39.871Z,50.13
2019-01-20T19:03:07.635Z,48.53
2019-01-20T19:05:35.435Z,49.27
2019-01-20T19:08:03.446Z,44.43
2019-01-20T19:10:31.199Z,46.97
2019-01-20T19:12:59.196Z,42.37
2019-01-20T19:15:27.157Z,39.23
2019-01-20T19:17:55.065Z,46.30
2019-01-20T19:20:22.921Z,47.17
2019-01-20T19:22:53.701Z,41.60
2019-01-20T19:25:21.596Z,47.60
2019-01-20T19:27:49.471Z,47.67
2019-01-20T19:30:20.519Z,51.40
2019-01-20T19:32:50.277Z,43.00
2019-01-20T19:35:18.209Z,42.80
2019-01-20T19:37:46.035Z,41.53
2019-01-20T19:40:13.851Z,45.50
2019-01-20T19:42:41.731Z,46.03
2019-01-20T19:45:12.519Z,41.90
2019-01-20T19:47:40.300Z,47.03
2019-01-20T19:50:09.143Z,46.07
2019-01-20T19:52:36.985Z,50.37
2019-01-20T19:55:09.283Z,45.23
2019-01-20T19:57:37.353Z,47.87
2019-01-20T20:00:09.340Z,47.93
2019-01-20T20:02:37.121Z,47.50
2019-01-20T20:05:09.638Z,44.33
2019-01-20T20:07:37.434Z,39.40
2019-01-20T20:10:07.262Z,42.70
2019-01-20T20:12:35.070Z,38.50
2019-01-20T20:15:25.086Z,44.00
2019-01-20T20:18:05.837Z,43.57
2019-01-20T20:20:53.273Z,43.43
2019-01-20T20:23:33.135Z,47.70
2019-01-20T20:26:20.404Z,51.57
2019-01-20T20:29:00.390Z,50.57
2019-01-20T20:31:47.840Z,48.83
2019-01-20T20:34:28.331Z,44.33
2019-01-20T20:37:15.562Z,45.87
2019-01-20T20:39:55.546Z,50.77
2019-01-20T20:42:43.008Z,45.93
2019-01-20T20:45:24.790Z,45.07
2019-01-20T20:48:12.051Z,41.20
2019-01-20T20:50:55.700Z,42.67
2019-01-20T20:53:43.495Z,38.13
2019-01-20T20:56:24.398Z,44.03
2019-01-20T20:59:12.754Z,37.50
2019-01-20T21:01:53.455Z,40.33
2019-01-20T21:04:40.969Z,42.67
2019-01-20T21:07:29.820Z,45.53
2019-01-20T21:10:11.616Z,45.10
2019-01-20T21:13:16.721Z,46.83
2019-01-20T21:15:57.049Z,42.63
2019-01-20T21:18:37.347Z,45.07
2019-01-20T21:21:26.656Z,45.33
2019-01-20T21:24:07.447Z,49.43
2019-01-20T21:26:54.712Z,49.07
2019-01-20T21:29:34.827Z,48.60
2019-01-20T21:32:22.064Z,43.80
2019-01-20T21:35:03.044Z,48.20
2019-01-20T21:37:50.507Z,49.57
2019-01-20T21:40:31.269Z,46.27
2019-01-20T21:43:18.497Z,46.93
2019-01-20T21:46:05.941Z,46.80
2019-01-20T21:48:46.442Z,49.47
2019-01-20T21:51:53.283Z,50.47
2019-01-20T21:54:33.701Z,50.13
2019-01-20T21:57:21.041Z,48.03
2019-01-20T22:00:02.964Z,50.30
2019-01-20T22:02:50.178Z,48.57
2019-01-20T22:09:20.194Z,47.73
2019-01-20T22:12:00.251Z,51.37
2019-01-20T22:14:47.459Z,45.43
2019-01-20T22:17:27.746Z,45.27
2019-01-20T22:20:16.719Z,52.60
2019-01-20T22:22:56.960Z,49.77
2019-01-20T22:25:44.374Z,51.27
2019-01-20T22:28:24.669Z,47.57
2019-01-20T22:31:11.949Z,81.27
2019-01-20T22:33:52.120Z,48.90
2019-01-20T22:36:39.367Z,47.80
2019-01-20T22:39:19.570Z,48.07
2019-01-20T22:42:07.016Z,46.73
2019-01-20T22:44:46.930Z,46.80
2019-01-20T22:47:34.162Z,50.67
2019-01-20T22:50:14.382Z,50.17
2019-01-20T22:53:01.701Z,49.57
2019-01-20T22:55:48.948Z,46.77
2019-01-20T22:58:36.208Z,48.33
2019-01-20T23:01:20.119Z,50.67
2019-01-20T23:04:07.608Z,46.20
2019-01-20T23:06:49.004Z,49.30
2019-01-20T23:09:36.364Z,46.80
2019-01-20T23:12:16.734Z,38.77
2019-01-20T23:18:11.744Z,41.73
2019-01-20T23:20:59.154Z,40.63
2019-01-20T23:23:39.748Z,40.70
2019-01-20T23:30:32.883Z,42.50
2019-01-20T23:36:25.451Z,42.73
2019-01-20T23:39:12.771Z,49.00
2019-01-20T23:41:53.611Z,47.17
2019-01-20T23:44:40.851Z,46.87
2019-01-20T23:47:21.723Z,43.13
2019-01-20T23:50:09.382Z,44.83
2019-01-20T23:52:49.607Z,47.40
2019-01-20T23:55:36.885Z,46.77
2019-01-20T23:58:24.071Z,39.50
